sensor_id;sensor_type;location;lat;lon;timestamp;pressure;altitude;pressure_sealevel;temperature;humidity
9059;BME280;4564;42.034;25.834;2023-02-13T00:02:04;102268.03;;;-1.44;87.21
9059;BME280;4564;42.034;25.834;2023-02-13T00:04:31;102274.59;;;-1.52;87.41
9059;BME280;4564;42.034;25.834;2023-02-13T00:06:59;102276.06;;;-1.67;87.70
9059;BME280;4564;42.034;25.834;2023-02-13T00:09:25;102274.13;;;-1.62;88.26
9059;BME280;4564;42.034;25.834;2023-02-13T00:11:52;102278.63;;;-1.64;88.87
9059;BME280;4564;42.034;25.834;2023-02-13T00:14:18;102278.47;;;-1.61;89.23
9059;BME280;4564;42.034;25.834;2023-02-13T00:16:45;102276.41;;;-1.53;89.16
9059;BME280;4564;42.034;25.834;2023-02-13T00:19:11;102290.88;;;-1.60;88.97
9059;BME280;4564;42.034;25.834;2023-02-13T00:21:38;102286.28;;;-1.78;88.55
9059;BME280;4564;42.034;25.834;2023-02-13T00:24:06;102288.09;;;-2.02;88.24
9059;BME280;4564;42.034;25.834;2023-02-13T00:26:32;102285.00;;;-2.38;88.98
9059;BME280;4564;42.034;25.834;2023-02-13T00:28:59;102289.31;;;-2.35;90.00
9059;BME280;4564;42.034;25.834;2023-02-13T00:31:26;102280.47;;;-2.36;90.30
9059;BME280;4564;42.034;25.834;2023-02-13T00:33:52;102274.25;;;-2.35;90.89
9059;BME280;4564;42.034;25.834;2023-02-13T00:36:19;102269.81;;;-2.34;91.52
9059;BME280;4564;42.034;25.834;2023-02-13T00:38:46;102275.78;;;-2.28;91.11
9059;BME280;4564;42.034;25.834;2023-02-13T00:41:15;102273.81;;;-2.23;90.78
9059;BME280;4564;42.034;25.834;2023-02-13T00:43:41;102280.59;;;-2.16;90.38
9059;BME280;4564;42.034;25.834;2023-02-13T00:46:08;102280.97;;;-2.25;89.43
9059;BME280;4564;42.034;25.834;2023-02-13T00:48:35;102277.50;;;-2.27;89.52
9059;BME280;4564;42.034;25.834;2023-02-13T00:51:02;102283.41;;;-2.19;89.97
9059;BME280;4564;42.034;25.834;2023-02-13T00:53:29;102279.38;;;-2.05;89.33
9059;BME280;4564;42.034;25.834;2023-02-13T00:55:56;102272.75;;;-1.95;89.64
9059;BME280;4564;42.034;25.834;2023-02-13T00:58:24;102275.06;;;-2.09;89.02
9059;BME280;4564;42.034;25.834;2023-02-13T01:00:50;102276.00;;;-2.34;89.24
9059;BME280;4564;42.034;25.834;2023-02-13T01:03:17;102266.00;;;-2.27;90.12
9059;BME280;4564;42.034;25.834;2023-02-13T01:05:44;102279.22;;;-2.26;90.20
9059;BME280;4564;42.034;25.834;2023-02-13T01:08:11;102277.38;;;-2.24;90.16
9059;BME280;4564;42.034;25.834;2023-02-13T01:10:38;102274.44;;;-2.16;90.72
9059;BME280;4564;42.034;25.834;2023-02-13T01:13:05;102273.09;;;-2.04;90.35
9059;BME280;4564;42.034;25.834;2023-02-13T01:15:33;102274.88;;;-2.05;88.57
9059;BME280;4564;42.034;25.834;2023-02-13T01:18:00;102280.03;;;-2.24;88.37
9059;BME280;4564;42.034;25.834;2023-02-13T01:20:27;102281.31;;;-2.34;88.55
9059;BME280;4564;42.034;25.834;2023-02-13T01:22:54;102281.75;;;-2.46;88.70
9059;BME280;4564;42.034;25.834;2023-02-13T01:25:21;102286.22;;;-2.48;88.70
9059;BME280;4564;42.034;25.834;2023-02-13T01:27:47;102282.38;;;-2.64;88.80
9059;BME280;4564;42.034;25.834;2023-02-13T01:30:14;102285.34;;;-2.72;89.22
9059;BME280;4564;42.034;25.834;2023-02-13T01:32:44;102285.00;;;-2.87;89.87
9059;BME280;4564;42.034;25.834;2023-02-13T01:35:12;102279.78;;;-2.90;89.95
9059;BME280;4564;42.034;25.834;2023-02-13T01:37:39;102281.41;;;-3.13;90.43
9059;BME280;4564;42.034;25.834;2023-02-13T01:40:06;102287.47;;;-3.08;91.18
9059;BME280;4564;42.034;25.834;2023-02-13T01:42:34;102278.00;;;-3.16;91.39
9059;BME280;4564;42.034;25.834;2023-02-13T01:45:02;102280.41;;;-3.09;91.45
9059;BME280;4564;42.034;25.834;2023-02-13T01:47:31;102279.28;;;-3.28;92.12
9059;BME280;4564;42.034;25.834;2023-02-13T01:50:06;102277.47;;;-3.26;92.78
9059;BME280;4564;42.034;25.834;2023-02-13T01:52:36;102284.38;;;-3.22;93.35
9059;BME280;4564;42.034;25.834;2023-02-13T01:55:04;102290.13;;;-3.08;94.22
9059;BME280;4564;42.034;25.834;2023-02-13T01:57:31;102291.59;;;-2.99;93.66
9059;BME280;4564;42.034;25.834;2023-02-13T01:59:58;102289.38;;;-3.13;93.02
9059;BME280;4564;42.034;25.834;2023-02-13T02:02:26;102290.94;;;-3.06;92.01
9059;BME280;4564;42.034;25.834;2023-02-13T02:04:53;102290.94;;;-3.06;91.36
9059;BME280;4564;42.034;25.834;2023-02-13T02:07:22;102295.28;;;-3.03;90.78
9059;BME280;4564;42.034;25.834;2023-02-13T02:09:50;102294.41;;;-3.04;90.62
9059;BME280;4564;42.034;25.834;2023-02-13T02:12:21;102308.81;;;-2.86;90.72
9059;BME280;4564;42.034;25.834;2023-02-13T02:14:49;102300.63;;;-2.78;90.40
9059;BME280;4564;42.034;25.834;2023-02-13T02:17:17;102311.44;;;-2.84;90.20
9059;BME280;4564;42.034;25.834;2023-02-13T02:19:47;102309.81;;;-2.88;89.55
9059;BME280;4564;42.034;25.834;2023-02-13T02:22:19;102319.03;;;-2.99;91.05
9059;BME280;4564;42.034;25.834;2023-02-13T02:25:01;102319.09;;;-3.02;91.81
9059;BME280;4564;42.034;25.834;2023-02-13T02:27:46;102316.16;;;-2.92;92.41
9059;BME280;4564;42.034;25.834;2023-02-13T02:30:38;102324.22;;;-2.96;92.31
9059;BME280;4564;42.034;25.834;2023-02-13T02:33:17;102324.22;;;-2.96;92.30
9059;BME280;4564;42.034;25.834;2023-02-13T02:35:46;102318.50;;;-2.83;93.16
9059;BME280;4564;42.034;25.834;2023-02-13T02:38:19;102327.09;;;-2.75;93.40
9059;BME280;4564;42.034;25.834;2023-02-13T02:40:51;102325.84;;;-2.65;94.56
9059;BME280;4564;42.034;25.834;2023-02-13T02:43:24;102325.84;;;-2.65;94.66
9059;BME280;4564;42.034;25.834;2023-02-13T02:45:55;102331.66;;;-2.54;94.82
9059;BME280;4564;42.034;25.834;2023-02-13T02:48:27;102331.41;;;-2.48;93.70
9059;BME280;4564;42.034;25.834;2023-02-13T02:51:15;102334.72;;;-2.66;91.18
9059;BME280;4564;42.034;25.834;2023-02-13T02:53:46;102341.53;;;-2.84;89.97
9059;BME280;4564;42.034;25.834;2023-02-13T02:56:16;102346.25;;;-2.92;90.12
9059;BME280;4564;42.034;25.834;2023-02-13T02:58:46;102334.44;;;-2.83;90.77
9059;BME280;4564;42.034;25.834;2023-02-13T03:01:33;102339.91;;;-2.88;90.69
9059;BME280;4564;42.034;25.834;2023-02-13T03:04:21;102347.88;;;-2.88;91.48
9059;BME280;4564;42.034;25.834;2023-02-13T03:07:08;102342.59;;;-2.89;92.49
9059;BME280;4564;42.034;25.834;2023-02-13T03:09:38;102344.16;;;-2.82;92.73
9059;BME280;4564;42.034;25.834;2023-02-13T03:12:23;102343.66;;;-2.69;92.31
9059;BME280;4564;42.034;25.834;2023-02-13T03:15:08;102342.09;;;-2.74;91.83
9059;BME280;4564;42.034;25.834;2023-02-13T03:17:35;102336.50;;;-2.67;91.44
9059;BME280;4564;42.034;25.834;2023-02-13T03:20:24;102343.31;;;-2.84;91.07
9059;BME280;4564;42.034;25.834;2023-02-13T03:23:16;102341.56;;;-2.85;91.63
9059;BME280;4564;42.034;25.834;2023-02-13T03:25:48;102339.03;;;-2.88;92.30
9059;BME280;4564;42.034;25.834;2023-02-13T03:28:20;102337.75;;;-2.77;92.33
9059;BME280;4564;42.034;25.834;2023-02-13T03:31:07;102339.22;;;-2.68;91.64
9059;BME280;4564;42.034;25.834;2023-02-13T03:33:42;102343.44;;;-2.63;91.71
9059;BME280;4564;42.034;25.834;2023-02-13T03:36:16;102340.03;;;-2.66;91.52
9059;BME280;4564;42.034;25.834;2023-02-13T03:39:02;102340.84;;;-2.64;91.49
9059;BME280;4564;42.034;25.834;2023-02-13T03:41:33;102349.19;;;-2.75;91.47
9059;BME280;4564;42.034;25.834;2023-02-13T03:44:05;102355.47;;;-2.77;91.26
9059;BME280;4564;42.034;25.834;2023-02-13T03:46:38;102355.16;;;-2.68;91.51
9059;BME280;4564;42.034;25.834;2023-02-13T03:49:09;102360.59;;;-2.71;91.22
9059;BME280;4564;42.034;25.834;2023-02-13T03:51:57;102359.69;;;-2.70;91.57
9059;BME280;4564;42.034;25.834;2023-02-13T03:54:26;102356.84;;;-2.66;91.42
9059;BME280;4564;42.034;25.834;2023-02-13T03:57:14;102351.72;;;-2.70;91.01
9059;BME280;4564;42.034;25.834;2023-02-13T04:00:02;102361.19;;;-2.63;92.06
9059;BME280;4564;42.034;25.834;2023-02-13T04:02:31;102368.34;;;-2.65;91.13
9059;BME280;4564;42.034;25.834;2023-02-13T04:04:58;102361.34;;;-2.68;92.04
9059;BME280;4564;42.034;25.834;2023-02-13T04:07:30;102363.41;;;-2.76;90.98
9059;BME280;4564;42.034;25.834;2023-02-13T04:09:58;102362.41;;;-2.73;90.90
9059;BME280;4564;42.034;25.834;2023-02-13T04:12:26;102353.78;;;-2.80;90.49
9059;BME280;4564;42.034;25.834;2023-02-13T04:14:57;102355.09;;;-2.91;89.73
9059;BME280;4564;42.034;25.834;2023-02-13T04:17:29;102361.31;;;-2.92;90.26
9059;BME280;4564;42.034;25.834;2023-02-13T04:19:57;102359.03;;;-3.05;89.59
9059;BME280;4564;42.034;25.834;2023-02-13T04:22:24;102361.91;;;-3.11;89.90
9059;BME280;4564;42.034;25.834;2023-02-13T04:24:52;102364.94;;;-3.23;89.80
9059;BME280;4564;42.034;25.834;2023-02-13T04:27:18;102357.50;;;-3.40;90.40
9059;BME280;4564;42.034;25.834;2023-02-13T04:29:45;102351.13;;;-3.34;91.18
9059;BME280;4564;42.034;25.834;2023-02-13T04:32:12;102357.84;;;-3.22;92.46
9059;BME280;4564;42.034;25.834;2023-02-13T04:34:39;102366.19;;;-3.07;92.22
9059;BME280;4564;42.034;25.834;2023-02-13T04:37:05;102362.25;;;-2.95;92.57
9059;BME280;4564;42.034;25.834;2023-02-13T04:39:32;102364.88;;;-2.93;92.51
9059;BME280;4564;42.034;25.834;2023-02-13T04:42:00;102369.56;;;-3.02;92.26
9059;BME280;4564;42.034;25.834;2023-02-13T04:44:26;102378.88;;;-2.88;92.46
9059;BME280;4564;42.034;25.834;2023-02-13T04:46:53;102382.34;;;-2.86;91.08
9059;BME280;4564;42.034;25.834;2023-02-13T04:49:19;102387.19;;;-2.99;91.22
9059;BME280;4564;42.034;25.834;2023-02-13T04:51:46;102389.34;;;-3.12;90.44
9059;BME280;4564;42.034;25.834;2023-02-13T04:54:12;102383.63;;;-3.26;89.82
9059;BME280;4564;42.034;25.834;2023-02-13T04:56:39;102391.81;;;-3.33;90.46
9059;BME280;4564;42.034;25.834;2023-02-13T04:59:07;102387.22;;;-3.28;90.79
9059;BME280;4564;42.034;25.834;2023-02-13T05:01:33;102389.22;;;-3.35;90.53
9059;BME280;4564;42.034;25.834;2023-02-13T05:04:00;102393.91;;;-3.45;90.69
9059;BME280;4564;42.034;25.834;2023-02-13T05:06:27;102397.50;;;-3.46;90.63
9059;BME280;4564;42.034;25.834;2023-02-13T05:08:53;102390.94;;;-3.62;90.14
9059;BME280;4564;42.034;25.834;2023-02-13T05:11:20;102399.28;;;-3.75;90.68
9059;BME280;4564;42.034;25.834;2023-02-13T05:13:46;102402.97;;;-3.81;90.67
9059;BME280;4564;42.034;25.834;2023-02-13T05:16:14;102396.34;;;-3.96;91.54
9059;BME280;4564;42.034;25.834;2023-02-13T05:18:41;102401.22;;;-3.82;91.82
9059;BME280;4564;42.034;25.834;2023-02-13T05:21:08;102400.91;;;-3.71;90.37
9059;BME280;4564;42.034;25.834;2023-02-13T05:23:52;102408.25;;;-3.79;89.83
9059;BME280;4564;42.034;25.834;2023-02-13T05:26:18;102410.31;;;-3.91;89.43
9059;BME280;4564;42.034;25.834;2023-02-13T05:28:45;102412.97;;;-3.91;89.45
9059;BME280;4564;42.034;25.834;2023-02-13T05:31:30;102413.88;;;-3.92;89.50
9059;BME280;4564;42.034;25.834;2023-02-13T05:33:57;102411.25;;;-3.93;89.00
9059;BME280;4564;42.034;25.834;2023-02-13T05:36:23;102418.09;;;-3.85;89.45
9059;BME280;4564;42.034;25.834;2023-02-13T05:38:50;102416.50;;;-3.90;88.54
9059;BME280;4564;42.034;25.834;2023-02-13T05:41:16;102416.19;;;-3.79;87.90
9059;BME280;4564;42.034;25.834;2023-02-13T05:43:44;102420.03;;;-3.60;88.66
9059;BME280;4564;42.034;25.834;2023-02-13T05:46:10;102422.13;;;-3.41;87.90
9059;BME280;4564;42.034;25.834;2023-02-13T05:48:38;102418.34;;;-3.33;87.83
9059;BME280;4564;42.034;25.834;2023-02-13T05:51:05;102426.97;;;-3.25;87.89
9059;BME280;4564;42.034;25.834;2023-02-13T05:53:32;102423.94;;;-3.13;88.67
9059;BME280;4564;42.034;25.834;2023-02-13T05:55:59;102418.91;;;-2.94;89.19
9059;BME280;4564;42.034;25.834;2023-02-13T05:58:27;102420.78;;;-2.70;88.67
9059;BME280;4564;42.034;25.834;2023-02-13T06:00:54;102423.31;;;-2.41;88.35
9059;BME280;4564;42.034;25.834;2023-02-13T06:03:21;102431.38;;;-2.18;87.00
9059;BME280;4564;42.034;25.834;2023-02-13T06:05:49;102427.47;;;-2.07;86.61
9059;BME280;4564;42.034;25.834;2023-02-13T06:08:16;102428.16;;;-2.02;86.62
9059;BME280;4564;42.034;25.834;2023-02-13T06:10:42;102426.38;;;-2.02;86.54
9059;BME280;4564;42.034;25.834;2023-02-13T06:13:09;102427.84;;;-1.93;86.76
9059;BME280;4564;42.034;25.834;2023-02-13T06:15:35;102430.50;;;-1.93;86.89
9059;BME280;4564;42.034;25.834;2023-02-13T06:18:02;102433.66;;;-1.59;86.31
9059;BME280;4564;42.034;25.834;2023-02-13T06:20:29;102442.75;;;-0.96;86.29
9059;BME280;4564;42.034;25.834;2023-02-13T06:22:57;102438.00;;;-0.45;83.42
9059;BME280;4564;42.034;25.834;2023-02-13T06:25:23;102441.03;;;-0.54;81.87
9059;BME280;4564;42.034;25.834;2023-02-13T06:27:50;102442.03;;;-0.14;81.54
9059;BME280;4564;42.034;25.834;2023-02-13T06:30:17;102441.59;;;-0.05;80.22
9059;BME280;4564;42.034;25.834;2023-02-13T06:32:44;102442.69;;;0.11;79.87
9059;BME280;4564;42.034;25.834;2023-02-13T06:35:11;102454.78;;;0.59;77.55
9059;BME280;4564;42.034;25.834;2023-02-13T06:37:38;102449.38;;;1.16;75.24
9059;BME280;4564;42.034;25.834;2023-02-13T06:40:06;102454.19;;;1.63;74.70
9059;BME280;4564;42.034;25.834;2023-02-13T06:42:33;102452.19;;;2.52;71.91
9059;BME280;4564;42.034;25.834;2023-02-13T06:45:00;102451.69;;;2.77;68.63
9059;BME280;4564;42.034;25.834;2023-02-13T06:47:27;102450.72;;;3.57;66.79
9059;BME280;4564;42.034;25.834;2023-02-13T06:49:53;102453.34;;;3.58;64.87
9059;BME280;4564;42.034;25.834;2023-02-13T06:52:20;102451.78;;;3.54;66.15
9059;BME280;4564;42.034;25.834;2023-02-13T06:54:46;102449.84;;;4.02;66.09
9059;BME280;4564;42.034;25.834;2023-02-13T06:57:14;102452.63;;;4.58;63.94
9059;BME280;4564;42.034;25.834;2023-02-13T06:59:41;102446.78;;;5.21;60.93
9059;BME280;4564;42.034;25.834;2023-02-13T07:02:08;102448.75;;;5.85;60.17
9059;BME280;4564;42.034;25.834;2023-02-13T07:04:35;102445.00;;;6.53;59.47
9059;BME280;4564;42.034;25.834;2023-02-13T07:07:01;102457.34;;;7.06;57.22
9059;BME280;4564;42.034;25.834;2023-02-13T07:09:29;102452.50;;;7.35;51.88
9059;BME280;4564;42.034;25.834;2023-02-13T07:11:56;102450.19;;;6.68;53.66
9059;BME280;4564;42.034;25.834;2023-02-13T07:14:23;102450.59;;;7.24;54.44
9059;BME280;4564;42.034;25.834;2023-02-13T07:16:50;102452.13;;;7.15;51.70
9059;BME280;4564;42.034;25.834;2023-02-13T07:19:17;102453.41;;;7.23;50.78
9059;BME280;4564;42.034;25.834;2023-02-13T07:21:43;102449.47;;;7.39;51.48
9059;BME280;4564;42.034;25.834;2023-02-13T07:24:10;102451.31;;;7.86;49.61
9059;BME280;4564;42.034;25.834;2023-02-13T07:26:37;102453.28;;;7.61;51.70
9059;BME280;4564;42.034;25.834;2023-02-13T07:29:03;102455.75;;;7.87;52.06
9059;BME280;4564;42.034;25.834;2023-02-13T07:31:32;102451.47;;;7.72;52.14
9059;BME280;4564;42.034;25.834;2023-02-13T07:33:58;102456.53;;;7.53;52.59
9059;BME280;4564;42.034;25.834;2023-02-13T07:36:25;102448.09;;;7.81;51.24
9059;BME280;4564;42.034;25.834;2023-02-13T07:38:52;102450.50;;;7.73;52.82
9059;BME280;4564;42.034;25.834;2023-02-13T07:41:18;102441.31;;;7.76;52.30
9059;BME280;4564;42.034;25.834;2023-02-13T07:43:45;102450.69;;;7.59;51.71
9059;BME280;4564;42.034;25.834;2023-02-13T07:46:11;102439.47;;;7.52;52.97
9059;BME280;4564;42.034;25.834;2023-02-13T07:48:39;102444.53;;;7.33;53.08
9059;BME280;4564;42.034;25.834;2023-02-13T07:51:06;102427.88;;;7.39;54.31
9059;BME280;4564;42.034;25.834;2023-02-13T07:53:33;102422.44;;;7.87;53.32
9059;BME280;4564;42.034;25.834;2023-02-13T07:56:00;102416.56;;;8.39;51.17
9059;BME280;4564;42.034;25.834;2023-02-13T07:58:29;102415.75;;;7.80;51.77
9059;BME280;4564;42.034;25.834;2023-02-13T08:00:56;102412.41;;;7.65;54.70
9059;BME280;4564;42.034;25.834;2023-02-13T08:03:23;102411.97;;;7.82;52.82
9059;BME280;4564;42.034;25.834;2023-02-13T08:05:50;102412.53;;;7.98;52.94
9059;BME280;4564;42.034;25.834;2023-02-13T08:08:17;102419.22;;;7.58;54.17
9059;BME280;4564;42.034;25.834;2023-02-13T08:10:44;102423.22;;;7.05;56.47
9059;BME280;4564;42.034;25.834;2023-02-13T08:13:28;102417.28;;;6.25;58.56
9059;BME280;4564;42.034;25.834;2023-02-13T08:15:55;102415.41;;;6.01;61.62
9059;BME280;4564;42.034;25.834;2023-02-13T08:18:21;102413.91;;;5.70;62.77
9059;BME280;4564;42.034;25.834;2023-02-13T08:20:48;102408.75;;;5.79;60.76
9059;BME280;4564;42.034;25.834;2023-02-13T08:23:16;102408.94;;;5.90;63.35
9059;BME280;4564;42.034;25.834;2023-02-13T08:25:42;102411.44;;;5.94;61.57
9059;BME280;4564;42.034;25.834;2023-02-13T08:28:09;102411.94;;;5.59;60.82
9059;BME280;4564;42.034;25.834;2023-02-13T08:30:36;102403.38;;;5.67;62.05
9059;BME280;4564;42.034;25.834;2023-02-13T08:33:02;102404.78;;;5.85;62.81
9059;BME280;4564;42.034;25.834;2023-02-13T08:35:29;102399.81;;;6.18;60.18
9059;BME280;4564;42.034;25.834;2023-02-13T08:37:56;102404.34;;;6.30;54.42
9059;BME280;4564;42.034;25.834;2023-02-13T08:40:24;102395.28;;;6.31;54.76
9059;BME280;4564;42.034;25.834;2023-02-13T08:42:50;102390.72;;;6.45;52.88
9059;BME280;4564;42.034;25.834;2023-02-13T08:45:17;102386.63;;;6.39;49.17
9059;BME280;4564;42.034;25.834;2023-02-13T08:47:43;102386.84;;;6.49;49.13
9059;BME280;4564;42.034;25.834;2023-02-13T08:50:10;102390.31;;;6.51;48.96
9059;BME280;4564;42.034;25.834;2023-02-13T08:52:37;102390.09;;;6.41;48.91
9059;BME280;4564;42.034;25.834;2023-02-13T08:55:03;102376.41;;;6.31;47.05
9059;BME280;4564;42.034;25.834;2023-02-13T08:57:31;102382.44;;;6.22;45.30
9059;BME280;4564;42.034;25.834;2023-02-13T08:59:58;102380.19;;;6.42;48.30
9059;BME280;4564;42.034;25.834;2023-02-13T09:02:24;102376.91;;;6.62;47.31
9059;BME280;4564;42.034;25.834;2023-02-13T09:04:51;102377.72;;;6.75;47.34
9059;BME280;4564;42.034;25.834;2023-02-13T09:07:17;102384.06;;;6.87;45.90
9059;BME280;4564;42.034;25.834;2023-02-13T09:09:44;102384.00;;;6.75;46.17
9059;BME280;4564;42.034;25.834;2023-02-13T09:12:11;102374.31;;;6.60;46.85
9059;BME280;4564;42.034;25.834;2023-02-13T09:14:39;102376.03;;;6.74;46.95
9059;BME280;4564;42.034;25.834;2023-02-13T09:17:06;102370.63;;;6.74;46.14
9059;BME280;4564;42.034;25.834;2023-02-13T09:19:32;102372.66;;;6.83;45.81
9059;BME280;4564;42.034;25.834;2023-02-13T09:21:59;102364.13;;;6.77;47.41
9059;BME280;4564;42.034;25.834;2023-02-13T09:24:25;102369.06;;;6.95;48.80
9059;BME280;4564;42.034;25.834;2023-02-13T09:26:52;102364.69;;;7.05;46.00
9059;BME280;4564;42.034;25.834;2023-02-13T09:29:20;102359.19;;;6.70;45.15
9059;BME280;4564;42.034;25.834;2023-02-13T09:31:48;102352.31;;;6.54;45.67
9059;BME280;4564;42.034;25.834;2023-02-13T09:34:15;102355.75;;;6.68;47.30
9059;BME280;4564;42.034;25.834;2023-02-13T09:36:41;102342.72;;;6.86;46.95
9059;BME280;4564;42.034;25.834;2023-02-13T09:39:10;102348.28;;;6.72;47.36
9059;BME280;4564;42.034;25.834;2023-02-13T09:41:37;102340.50;;;6.80;47.76
9059;BME280;4564;42.034;25.834;2023-02-13T09:44:05;102338.25;;;6.74;46.69
9059;BME280;4564;42.034;25.834;2023-02-13T09:46:36;102340.09;;;6.97;49.15
9059;BME280;4564;42.034;25.834;2023-02-13T09:49:05;102326.09;;;6.92;46.63
9059;BME280;4564;42.034;25.834;2023-02-13T09:51:33;102323.00;;;7.09;48.67
9059;BME280;4564;42.034;25.834;2023-02-13T09:54:01;102307.38;;;7.26;47.96
9059;BME280;4564;42.034;25.834;2023-02-13T09:56:34;102305.13;;;7.43;49.62
9059;BME280;4564;42.034;25.834;2023-02-13T09:59:05;102300.25;;;7.59;48.34
9059;BME280;4564;42.034;25.834;2023-02-13T10:01:38;102303.66;;;7.62;48.48
9059;BME280;4564;42.034;25.834;2023-02-13T10:04:23;102299.38;;;7.59;46.61
9059;BME280;4564;42.034;25.834;2023-02-13T10:06:53;102288.72;;;7.69;48.46
9059;BME280;4564;42.034;25.834;2023-02-13T10:09:26;102296.94;;;7.67;47.63
9059;BME280;4564;42.034;25.834;2023-02-13T10:12:07;102279.03;;;7.88;49.06
9059;BME280;4564;42.034;25.834;2023-02-13T10:14:41;102283.47;;;8.00;48.13
9059;BME280;4564;42.034;25.834;2023-02-13T10:17:10;102280.06;;;7.98;47.24
9059;BME280;4564;42.034;25.834;2023-02-13T10:19:41;102272.66;;;8.00;48.03
9059;BME280;4564;42.034;25.834;2023-02-13T10:22:10;102268.97;;;7.79;46.88
9059;BME280;4564;42.034;25.834;2023-02-13T10:24:39;102264.31;;;7.92;47.61
9059;BME280;4564;42.034;25.834;2023-02-13T10:27:11;102262.59;;;8.14;47.67
9059;BME280;4564;42.034;25.834;2023-02-13T10:29:42;102264.81;;;8.09;47.19
9059;BME280;4564;42.034;25.834;2023-02-13T10:32:28;102249.69;;;8.17;46.53
9059;BME280;4564;42.034;25.834;2023-02-13T10:34:59;102248.81;;;8.17;46.24
9059;BME280;4564;42.034;25.834;2023-02-13T10:37:27;102250.53;;;8.29;47.61
9059;BME280;4564;42.034;25.834;2023-02-13T10:39:55;102237.63;;;8.21;46.96
9059;BME280;4564;42.034;25.834;2023-02-13T10:42:22;102230.88;;;8.27;49.01
9059;BME280;4564;42.034;25.834;2023-02-13T10:45:01;102229.41;;;8.23;49.47
9059;BME280;4564;42.034;25.834;2023-02-13T10:47:33;102214.91;;;8.35;49.76
9059;BME280;4564;42.034;25.834;2023-02-13T10:50:10;102216.75;;;8.34;49.49
9059;BME280;4564;42.034;25.834;2023-02-13T10:52:43;102210.97;;;8.39;49.01
9059;BME280;4564;42.034;25.834;2023-02-13T10:55:20;102204.56;;;8.51;49.49
9059;BME280;4564;42.034;25.834;2023-02-13T10:58:01;102183.28;;;8.47;49.52
9059;BME280;4564;42.034;25.834;2023-02-13T11:00:30;102185.84;;;8.48;48.63
9059;BME280;4564;42.034;25.834;2023-02-13T11:03:00;102188.78;;;8.56;48.45
9059;BME280;4564;42.034;25.834;2023-02-13T11:05:31;102191.00;;;8.62;48.52
9059;BME280;4564;42.034;25.834;2023-02-13T11:07:58;102178.97;;;8.44;48.57
9059;BME280;4564;42.034;25.834;2023-02-13T11:10:26;102175.00;;;8.59;49.54
9059;BME280;4564;42.034;25.834;2023-02-13T11:12:53;102167.81;;;8.69;48.40
9059;BME280;4564;42.034;25.834;2023-02-13T11:15:22;102167.09;;;8.67;48.72
9059;BME280;4564;42.034;25.834;2023-02-13T11:17:50;102163.94;;;8.62;48.93
9059;BME280;4564;42.034;25.834;2023-02-13T11:23:22;102151.81;;;8.46;48.57
9059;BME280;4564;42.034;25.834;2023-02-13T11:25:54;102147.22;;;8.57;48.91
9059;BME280;4564;42.034;25.834;2023-02-13T11:28:21;102138.13;;;8.58;48.27
9059;BME280;4564;42.034;25.834;2023-02-13T11:30:48;102143.78;;;8.55;48.02
9059;BME280;4564;42.034;25.834;2023-02-13T11:33:20;102134.41;;;8.59;47.58
9059;BME280;4564;42.034;25.834;2023-02-13T11:35:48;102128.13;;;8.59;48.02
9059;BME280;4564;42.034;25.834;2023-02-13T11:38:22;102123.09;;;8.54;49.15
9059;BME280;4564;42.034;25.834;2023-02-13T11:40:50;102129.94;;;8.69;47.54
9059;BME280;4564;42.034;25.834;2023-02-13T11:43:26;102117.25;;;8.70;46.93
9059;BME280;4564;42.034;25.834;2023-02-13T11:46:00;102118.13;;;8.70;47.68
9059;BME280;4564;42.034;25.834;2023-02-13T11:48:28;102119.66;;;8.63;47.31
9059;BME280;4564;42.034;25.834;2023-02-13T11:50:55;102123.69;;;8.69;47.17
9059;BME280;4564;42.034;25.834;2023-02-13T11:53:23;102105.38;;;8.82;46.81
9059;BME280;4564;42.034;25.834;2023-02-13T11:56:06;102113.31;;;8.95;46.29
9059;BME280;4564;42.034;25.834;2023-02-13T11:58:33;102102.84;;;9.01;46.77
9059;BME280;4564;42.034;25.834;2023-02-13T12:01:10;102101.13;;;9.00;46.63
9059;BME280;4564;42.034;25.834;2023-02-13T12:03:55;102101.06;;;8.91;47.00
9059;BME280;4564;42.034;25.834;2023-02-13T12:06:22;102089.34;;;8.69;46.42
9059;BME280;4564;42.034;25.834;2023-02-13T12:08:50;102090.34;;;8.68;46.86
9059;BME280;4564;42.034;25.834;2023-02-13T12:11:19;102093.81;;;8.80;47.55
9059;BME280;4564;42.034;25.834;2023-02-13T12:13:47;102085.47;;;8.83;46.93
9059;BME280;4564;42.034;25.834;2023-02-13T12:16:16;102088.50;;;8.90;47.12
9059;BME280;4564;42.034;25.834;2023-02-13T12:18:47;102075.03;;;8.99;46.97
9059;BME280;4564;42.034;25.834;2023-02-13T12:21:19;102084.25;;;8.97;47.37
9059;BME280;4564;42.034;25.834;2023-02-13T12:23:54;102087.25;;;8.94;47.09
9059;BME280;4564;42.034;25.834;2023-02-13T12:26:25;102083.09;;;8.90;46.70
9059;BME280;4564;42.034;25.834;2023-02-13T12:29:00;102079.00;;;8.74;46.98
9059;BME280;4564;42.034;25.834;2023-02-13T12:31:33;102072.72;;;8.74;46.39
9059;BME280;4564;42.034;25.834;2023-02-13T12:36:49;102066.56;;;8.93;46.23
9059;BME280;4564;42.034;25.834;2023-02-13T12:39:25;102065.38;;;8.85;46.51
9059;BME280;4564;42.034;25.834;2023-02-13T12:41:58;102061.16;;;8.93;46.60
9059;BME280;4564;42.034;25.834;2023-02-13T12:44:33;102058.50;;;8.81;47.03
9059;BME280;4564;42.034;25.834;2023-02-13T12:47:08;102056.53;;;8.83;46.91
9059;BME280;4564;42.034;25.834;2023-02-13T12:49:50;102050.84;;;8.87;46.52
9059;BME280;4564;42.034;25.834;2023-02-13T12:52:23;102047.69;;;8.81;45.16
9059;BME280;4564;42.034;25.834;2023-02-13T12:55:00;102049.41;;;8.82;45.49
9059;BME280;4564;42.034;25.834;2023-02-13T12:57:35;102043.47;;;8.89;46.33
9059;BME280;4564;42.034;25.834;2023-02-13T13:00:10;102040.03;;;8.87;46.73
9059;BME280;4564;42.034;25.834;2023-02-13T13:02:46;102030.91;;;8.88;45.27
9059;BME280;4564;42.034;25.834;2023-02-13T13:05:18;102029.19;;;8.87;45.50
9059;BME280;4564;42.034;25.834;2023-02-13T13:10:37;102019.69;;;8.92;44.93
9059;BME280;4564;42.034;25.834;2023-02-13T13:13:11;102022.72;;;8.99;45.54
9059;BME280;4564;42.034;25.834;2023-02-13T13:15:40;102022.38;;;8.92;46.45
9059;BME280;4564;42.034;25.834;2023-02-13T13:18:17;102024.88;;;8.74;45.88
9059;BME280;4564;42.034;25.834;2023-02-13T13:20:51;102011.41;;;8.63;46.32
9059;BME280;4564;42.034;25.834;2023-02-13T13:23:21;102017.06;;;8.60;45.95
9059;BME280;4564;42.034;25.834;2023-02-13T13:25:55;102009.22;;;8.57;46.78
9059;BME280;4564;42.034;25.834;2023-02-13T13:28:25;102013.66;;;8.58;47.56